createdAt,value
2023-04-25T00:03:57.746Z,36.96
2023-04-25T00:09:00.113Z,37.55
2023-04-25T00:14:02.029Z,37.58
2023-04-25T00:19:04.175Z,38.00
2023-04-25T00:24:06.483Z,38.05
2023-04-25T00:29:08.371Z,38.47
2023-04-25T00:34:10.235Z,38.54
2023-04-25T00:39:12.876Z,38.93
2023-04-25T00:44:14.769Z,39.39
2023-04-25T00:49:16.978Z,39.24
2023-04-25T00:54:18.880Z,40.22
2023-04-25T00:59:20.867Z,39.93
2023-04-25T01:04:23.097Z,39.91
2023-04-25T01:09:25.239Z,39.98
2023-04-25T01:14:27.288Z,40.14
2023-04-25T01:19:29.170Z,40.19
2023-04-25T01:24:33.040Z,40.16
2023-04-25T01:29:35.443Z,40.68
2023-04-25T01:34:37.465Z,40.68
2023-04-25T01:39:39.591Z,40.35
2023-04-25T01:44:41.620Z,40.55
2023-04-25T01:49:43.583Z,40.44
2023-04-25T01:54:45.721Z,40.52
2023-04-25T01:59:47.698Z,40.15
2023-04-25T02:04:49.719Z,40.05
2023-04-25T02:09:51.673Z,40.06
2023-04-25T02:14:53.680Z,40.13
2023-04-25T02:19:55.733Z,40.50
2023-04-25T02:24:57.704Z,40.82
2023-04-25T02:29:59.680Z,40.83
2023-04-25T02:35:02.384Z,41.38
2023-04-25T02:40:05.690Z,41.04
2023-04-25T02:45:08.316Z,41.02
2023-04-25T02:50:10.101Z,40.85
2023-04-25T02:55:11.926Z,40.58
2023-04-25T03:00:14.356Z,39.26
2023-04-25T03:05:16.493Z,37.83
2023-04-25T03:10:18.474Z,38.45
2023-04-25T03:15:20.426Z,38.83
2023-04-25T03:20:22.437Z,39.92
2023-04-25T03:25:24.437Z,39.98
2023-04-25T03:30:26.418Z,40.31
2023-04-25T03:35:28.331Z,39.86
2023-04-25T03:40:30.305Z,39.35
2023-04-25T03:45:32.273Z,39.08
2023-04-25T03:50:34.254Z,39.06
2023-04-25T03:55:36.175Z,38.67
2023-04-25T04:00:38.069Z,38.61
2023-04-25T04:05:40.084Z,37.09
2023-04-25T04:10:42.316Z,36.28
2023-04-25T04:15:44.347Z,35.43
2023-04-25T04:20:46.237Z,30.31
2023-04-25T04:25:48.228Z,28.37
2023-04-25T04:30:50.568Z,30.50
2023-04-25T04:35:52.758Z,32.03
2023-04-25T04:40:54.666Z,33.04
2023-04-25T04:45:57.026Z,34.51
2023-04-25T04:50:59.332Z,35.16
2023-04-25T04:56:01.696Z,36.42
2023-04-25T05:01:03.949Z,36.98
2023-04-25T05:06:08.089Z,37.60
2023-04-25T05:11:10.566Z,36.97
2023-04-25T05:16:15.216Z,36.95
2023-04-25T05:21:17.142Z,36.73
2023-04-25T05:26:19.136Z,36.02
2023-04-25T05:31:21.173Z,32.73
2023-04-25T05:36:23.176Z,33.77
2023-04-25T05:41:25.073Z,32.53
2023-04-25T05:46:27.004Z,28.02
2023-04-25T05:51:28.998Z,27.48
2023-04-25T05:56:30.926Z,24.57
2023-04-25T06:01:32.800Z,21.75
2023-04-25T06:06:34.720Z,20.37
2023-04-25T06:11:36.762Z,20.31
2023-04-25T06:16:38.552Z,18.93
2023-04-25T06:21:40.398Z,16.79
2023-04-25T06:26:42.268Z,16.29
2023-04-25T06:31:44.179Z,16.30
2023-04-25T06:36:46.260Z,16.38
2023-04-25T06:41:48.119Z,15.86
2023-04-25T06:46:50.015Z,13.71
2023-04-25T06:51:51.938Z,14.49
2023-04-25T06:56:54.569Z,14.40
2023-04-25T07:01:56.482Z,13.54
2023-04-25T07:06:58.277Z,12.61
2023-04-25T07:12:00.172Z,13.03
2023-04-25T07:17:02.152Z,12.30
2023-04-25T07:22:04.084Z,12.84
2023-04-25T07:27:05.995Z,12.87
2023-04-25T07:32:07.952Z,13.49
2023-04-25T07:37:09.877Z,13.44
2023-04-25T07:42:11.742Z,12.45
2023-04-25T07:47:13.603Z,13.31
2023-04-25T07:52:15.485Z,13.95
2023-04-25T07:57:17.310Z,18.52
2023-04-25T08:02:19.272Z,21.12
2023-04-25T08:07:21.215Z,22.98
2023-04-25T08:12:23.547Z,23.97
2023-04-25T08:17:25.471Z,25.25
2023-04-25T08:22:27.294Z,25.96
2023-04-25T08:27:29.225Z,26.80
2023-04-25T08:32:31.186Z,27.59
2023-04-25T08:37:33.144Z,27.22
2023-04-25T08:42:34.816Z,27.22
2023-04-25T08:47:36.718Z,27.64
2023-04-25T08:52:41.209Z,28.06
2023-04-25T08:57:43.465Z,28.08
2023-04-25T09:02:45.489Z,28.67
2023-04-25T09:07:48.541Z,28.54
2023-04-25T09:13:07.176Z,29.51
2023-04-25T09:18:09.117Z,28.73
2023-04-25T09:23:11.027Z,28.98
2023-04-25T09:28:13.254Z,30.73
2023-04-25T09:33:14.922Z,29.89
2023-04-25T09:38:16.753Z,29.26
2023-04-25T09:43:21.879Z,31.40
2023-04-25T09:48:23.885Z,30.33
2023-04-25T09:53:25.806Z,30.08
2023-04-25T09:58:27.828Z,30.55
2023-04-25T10:03:34.105Z,31.02
2023-04-25T10:08:37.318Z,30.29
2023-04-25T10:13:39.181Z,29.67
2023-04-25T10:18:40.986Z,29.98
2023-04-25T10:23:42.813Z,30.02
2023-04-25T10:29:00.421Z,30.63
2023-04-25T10:34:02.295Z,30.42
2023-04-25T10:39:06.853Z,29.74
2023-04-25T10:44:09.485Z,29.13
2023-04-25T10:49:12.577Z,29.83
2023-04-25T10:54:16.357Z,30.50
2023-04-25T10:59:18.522Z,29.93
2023-04-25T11:04:33.313Z,29.95
2023-04-25T11:09:36.149Z,30.25
2023-04-25T11:14:38.249Z,29.88
2023-04-25T11:19:40.391Z,30.05
2023-04-25T11:24:42.434Z,30.44
2023-04-25T11:29:44.279Z,30.56
2023-04-25T11:34:46.185Z,30.08
2023-04-25T11:39:48.171Z,30.11
2023-04-25T11:44:49.888Z,29.99
2023-04-25T11:49:54.170Z,28.96
2023-04-25T11:54:57.349Z,28.65
2023-04-25T12:00:10.570Z,28.56
2023-04-25T12:05:30.404Z,28.33
2023-04-25T12:10:34.377Z,28.10
2023-04-25T12:15:36.161Z,28.19
2023-04-25T12:20:38.042Z,28.32
2023-04-25T12:25:43.515Z,28.68
2023-04-25T12:31:04.826Z,29.08
2023-04-25T12:36:07.403Z,29.25
2023-04-25T12:41:09.253Z,29.03
2023-04-25T12:46:11.052Z,29.91
2023-04-25T12:51:12.963Z,31.00
2023-04-25T12:56:14.825Z,31.35
2023-04-25T13:01:16.809Z,30.88
2023-04-25T13:06:18.927Z,30.86
2023-04-25T13:11:20.768Z,30.76
2023-04-25T13:16:22.682Z,30.14
2023-04-25T13:21:24.564Z,30.22
2023-04-25T13:26:26.984Z,30.39
2023-04-25T13:31:28.974Z,31.17
2023-04-25T13:36:30.942Z,31.19
2023-04-25T13:41:33.030Z,31.77
2023-04-25T13:46:46.303Z,32.24
2023-04-25T13:51:49.543Z,32.76
2023-04-25T13:56:51.465Z,32.93
2023-04-25T14:01:53.521Z,33.48
2023-04-25T14:06:55.285Z,33.59
2023-04-25T14:11:57.439Z,32.86
2023-04-25T14:16:59.445Z,32.73
2023-04-25T14:22:01.417Z,31.56
2023-04-25T14:27:04.348Z,31.02
2023-04-25T14:32:06.343Z,31.19
2023-04-25T14:37:08.246Z,30.43
2023-04-25T14:42:10.103Z,30.64
2023-04-25T14:47:12.011Z,30.39
2023-04-25T14:52:13.989Z,30.28
2023-04-25T14:57:16.526Z,30.39
2023-04-25T15:02:18.475Z,30.55
2023-04-25T15:07:20.408Z,31.16
2023-04-25T15:12:22.388Z,31.30
2023-04-25T15:17:24.254Z,31.41
2023-04-25T15:22:26.110Z,31.26
2023-04-25T15:27:28.182Z,31.93
2023-04-25T15:32:30.015Z,32.42
2023-04-25T15:37:32.023Z,32.50
2023-04-25T15:42:34.189Z,32.67
2023-04-25T15:47:36.108Z,32.71
2023-04-25T15:52:38.421Z,32.73
2023-04-25T15:57:40.372Z,32.78
2023-04-25T16:02:43.025Z,33.11
2023-04-25T16:07:45.350Z,33.46
2023-04-25T16:12:47.395Z,34.05
2023-04-25T16:17:49.321Z,34.67
2023-04-25T16:22:51.505Z,34.57
2023-04-25T16:27:53.356Z,34.85
2023-04-25T16:32:55.338Z,34.39
2023-04-25T16:37:57.336Z,34.11
2023-04-25T16:42:59.293Z,34.19
2023-04-25T16:48:01.402Z,34.47
2023-04-25T16:53:03.625Z,34.40
2023-04-25T16:58:05.740Z,34.49
2023-04-25T17:03:08.310Z,34.75
2023-04-25T17:08:10.415Z,34.80
2023-04-25T17:13:12.364Z,34.96
2023-04-25T17:18:14.344Z,34.95
2023-04-25T17:23:16.240Z,35.20
2023-04-25T17:28:18.198Z,35.17
2023-04-25T17:33:20.139Z,35.19
2023-04-25T17:38:21.985Z,35.13
2023-04-25T17:43:24.173Z,35.41
2023-04-25T17:48:26.383Z,35.22
2023-04-25T17:53:28.461Z,35.86
2023-04-25T17:58:30.496Z,39.00
2023-04-25T18:03:32.663Z,42.63
2023-04-25T18:08:34.541Z,44.57
2023-04-25T18:13:36.460Z,44.80
2023-04-25T18:18:38.387Z,46.44
2023-04-25T18:23:40.271Z,47.67
2023-04-25T18:28:42.202Z,48.11
2023-04-25T18:33:44.114Z,49.17
2023-04-25T18:38:46.026Z,49.76
2023-04-25T18:43:47.991Z,50.54
2023-04-25T18:48:53.699Z,51.29
2023-04-25T18:53:56.368Z,51.82
2023-04-25T18:58:58.258Z,52.07
2023-04-25T19:04:00.890Z,52.55
2023-04-25T19:09:04.257Z,53.42
2023-04-25T19:14:06.251Z,53.11
2023-04-25T19:19:08.602Z,53.27
2023-04-25T19:24:11.009Z,53.84
2023-04-25T19:29:13.661Z,53.50
2023-04-25T19:34:16.070Z,53.62
2023-04-25T19:39:18.090Z,54.57
2023-04-25T19:44:20.160Z,55.39
2023-04-25T19:49:22.132Z,55.83
2023-04-25T19:54:24.190Z,55.83
2023-04-25T19:59:26.181Z,56.29
2023-04-25T20:04:28.298Z,56.49
2023-04-25T20:09:30.361Z,55.80
2023-04-25T20:14:33.113Z,56.04
2023-04-25T20:19:35.242Z,56.25
2023-04-25T20:24:37.102Z,55.93
2023-04-25T20:29:39.129Z,55.87
2023-04-25T20:34:41.097Z,55.83
2023-04-25T20:39:43.074Z,55.97
2023-04-25T20:44:45.082Z,56.19
2023-04-25T20:49:47.093Z,55.83
2023-04-25T20:54:49.213Z,57.12
2023-04-25T20:59:51.349Z,56.97
2023-04-25T21:04:53.275Z,56.68
2023-04-25T21:09:55.201Z,57.07
2023-04-25T21:14:57.137Z,57.34
2023-04-25T21:19:59.223Z,57.97
2023-04-25T21:25:01.095Z,59.47
2023-04-25T21:30:03.349Z,59.71
2023-04-25T21:35:06.779Z,59.51
2023-04-25T21:40:08.846Z,62.00
2023-04-25T21:45:10.665Z,60.82
2023-04-25T21:50:13.389Z,60.98
2023-04-25T21:55:15.694Z,60.98
2023-04-25T22:00:17.762Z,61.93
2023-04-25T22:05:19.592Z,63.62
2023-04-25T22:10:21.950Z,64.45
2023-04-25T22:15:24.151Z,64.46
2023-04-25T22:20:26.490Z,66.74
2023-04-25T22:25:28.626Z,66.10
2023-04-25T22:30:31.328Z,67.98
2023-04-25T22:35:33.383Z,69.18
2023-04-25T22:40:35.303Z,70.84
2023-04-25T22:45:37.266Z,71.92
2023-04-25T22:50:39.314Z,74.29
2023-04-25T22:55:41.350Z,76.25
2023-04-25T23:00:43.349Z,78.95
2023-04-25T23:05:45.963Z,80.63
2023-04-25T23:10:47.921Z,82.61
2023-04-25T23:15:49.844Z,82.31
2023-04-25T23:20:51.718Z,82.51
2023-04-25T23:25:53.721Z,84.73
2023-04-25T23:30:59.502Z,83.27
2023-04-25T23:36:01.602Z,83.87
2023-04-25T23:41:04.059Z,86.14
2023-04-25T23:46:06.513Z,86.52
2023-04-25T23:51:08.842Z,90.57
2023-04-25T23:56:10.983Z,92.71
